ACF weather

Brisbane Archerfield Airport
Brisbane, Queensland, Australia

Public forecast

Using degrees Celsius for public forecast. Weather courtesy of forecast.io.

Closest aviation weather report (METAR) to Brisbane Archerfield Airport

Closest report is Brisbane International Airport, 12.6 nm (23.3 km) NNE. Retrieved 2019/10/18 02:30 UTC (0 seconds ago):

YBBN 180230Z 11009KT 9999 FEW033 25/17 Q1016 NOSIG

Closest aviation forecast (TAF) to Brisbane Archerfield Airport

Closest forecast is Brisbane International Airport, 12.6 nm (23.3 km) NNE. Retrieved 2019-10-18 00:39 UTC (2 hours ago):

TAF YBBN 172300Z 1800/1906 12012KT 9000 HZ FEW025 FM180300 10013KT CAVOK FM181100 11007KT 9999 SCT025 FM181500 21006KT 9999 BKN020 BECMG 1823/1824 02012KT 9999 SCT030 FM190500 02014KT 9999 -SHRA SCT035